CheckWX is a tool to help pilots better visualize weather data.  It is not intended as a substitute for an official pre-flight weather briefing.

02:07:28 UTC

KPNE METAR
Northeast Philadelphia Airport
Philadelphia, Pennsylvania, USA
Current

1 hour ago

KPNE 200054Z 25010KT 10SM CLR 33/23 A2989 RMK AO2 SLP118 T03280233
Observed
Jul-20 @ 00:54 UTC
Wind
  • 250° at 10 KTS
Visibility
10 SM
Flight Rules
VFR
Cloud Levels
  • Clear skies
Temperature
33°C / 91°F
Dewpoint
23°C / 73°F
Heat Index
38°C / 100°F
Humidity
56%
Altimeter
29.89" Hg
Pressure
1012.22 hPa
Previous

2 hours ago

KPNE 192354Z 25009KT 10SM CLR 33/23 A2988 RMK AO2 SLP115 T03330233 10356 20333 55002
Observed
Jul-19 @ 23:54 UTC
Wind
  • 250° at 9 KTS
Visibility
10 SM
Flight Rules
VFR
Cloud Levels
  • Clear skies
Temperature
33°C / 91°F
Dewpoint
23°C / 73°F
Heat Index
38°C / 100°F
Humidity
56%
Altimeter
29.88" Hg
Pressure
1011.82 hPa
Previous

3 hours ago

KPNE 192254Z 10SM CLR 34/23 A2986 RMK AO2 SLP110 T03440233
Observed
Jul-19 @ 22:54 UTC
Visibility
10 SM
Flight Rules
VFR
Cloud Levels
  • Clear skies
Temperature
34°C / 93°F
Dewpoint
23°C / 73°F
Heat Index
39°C / 103°F
Humidity
53%
Altimeter
29.86" Hg
Pressure
1011.22 hPa